createdAt,value
2017-09-08T06:55:16.395Z,49.88
2017-09-08T06:56:16.420Z,49.43
2017-09-08T06:57:16.444Z,48.01
2017-09-08T06:58:16.473Z,47.44
2017-09-08T06:59:16.500Z,47.61
2017-09-08T07:00:16.526Z,47.71
2017-09-08T07:01:16.554Z,46.75
2017-09-08T07:02:16.582Z,47.71
2017-09-08T07:03:16.607Z,47.87
2017-09-08T07:04:16.635Z,48.06
2017-09-08T07:05:16.667Z,48.44
2017-09-08T07:06:16.690Z,49.13
2017-09-08T07:07:16.718Z,48.56
2017-09-08T07:08:16.742Z,49.51
2017-09-08T07:09:16.772Z,49.03
2017-09-08T07:10:16.801Z,49.32
2017-09-08T07:11:16.832Z,49.03
2017-09-08T07:12:16.860Z,49.51
2017-09-08T07:13:16.884Z,49.29
2017-09-08T07:14:16.912Z,50.52
2017-09-08T07:15:16.941Z,50.36
2017-09-08T07:16:16.967Z,50.07
2017-09-08T07:17:16.994Z,49.60
2017-09-08T07:18:17.024Z,48.84
2017-09-08T07:19:17.052Z,48.36
2017-09-08T07:20:17.079Z,48.18
2017-09-08T07:21:17.109Z,48.36
2017-09-08T07:22:17.137Z,48.08
2017-09-08T07:23:17.165Z,48.01
2017-09-08T07:24:17.196Z,48.11
2017-09-08T07:25:17.223Z,48.11
2017-09-08T07:26:17.254Z,47.42
2017-09-08T07:27:17.288Z,48.08
2017-09-08T07:28:17.309Z,48.84
2017-09-08T07:29:17.339Z,49.03
2017-09-08T07:30:17.393Z,48.11
2017-09-08T07:31:17.401Z,48.11
2017-09-08T07:32:17.430Z,47.82
2017-09-08T07:33:17.458Z,48.20
2017-09-08T07:34:17.489Z,48.20
2017-09-08T07:35:17.519Z,48.20
2017-09-08T07:36:17.547Z,48.84
2017-09-08T07:37:17.579Z,49.53
2017-09-08T07:38:17.612Z,48.20
2017-09-08T07:39:17.640Z,48.68
2017-09-08T07:40:17.671Z,48.68
2017-09-08T07:41:17.699Z,49.53
2017-09-08T07:42:17.729Z,48.01
2017-09-08T07:43:17.759Z,48.01
2017-09-08T07:44:17.793Z,47.63
2017-09-08T07:45:17.821Z,49.32
2017-09-08T07:46:17.852Z,49.51
2017-09-08T07:47:17.884Z,49.98
2017-09-08T07:48:17.924Z,48.94
2017-09-08T07:49:17.944Z,48.01
2017-09-08T07:50:17.978Z,46.99
2017-09-08T07:51:18.009Z,47.92
2017-09-08T07:52:18.039Z,47.63
2017-09-08T07:53:18.068Z,48.39
2017-09-08T07:54:18.102Z,47.53
2017-09-08T07:55:18.134Z,48.36
2017-09-08T07:56:18.163Z,48.65
2017-09-08T07:57:18.196Z,48.94
2017-09-08T07:58:18.228Z,49.32
2017-09-08T07:59:18.258Z,48.68
2017-09-08T08:00:18.292Z,47.92
2017-09-08T08:01:18.322Z,48.03
2017-09-08T08:02:18.357Z,47.37
2017-09-08T08:03:18.387Z,46.33
2017-09-08T08:04:18.420Z,45.87
2017-09-08T08:05:18.450Z,45.19
2017-09-08T08:06:18.483Z,45.38
2017-09-08T08:07:18.520Z,45.19
2017-09-08T08:08:18.551Z,45.85
2017-09-08T08:09:18.583Z,46.61
2017-09-08T08:10:18.614Z,46.49
2017-09-08T08:11:18.648Z,46.51
2017-09-08T08:12:18.682Z,46.42
2017-09-08T08:13:18.714Z,46.16
2017-09-08T08:14:18.748Z,46.42
2017-09-08T08:15:18.780Z,46.90
2017-09-08T08:16:18.813Z,47.37
2017-09-08T08:17:18.848Z,48.01
2017-09-08T08:18:18.882Z,47.73
2017-09-08T08:19:18.914Z,47.28
2017-09-08T08:20:18.947Z,46.64
2017-09-08T08:21:18.981Z,46.16
2017-09-08T08:22:19.015Z,46.51
2017-09-08T08:23:19.055Z,46.70
2017-09-08T08:24:19.083Z,47.56
2017-09-08T08:25:19.120Z,47.39
2017-09-08T08:26:19.153Z,46.99
2017-09-08T08:27:19.188Z,46.04
2017-09-08T08:28:19.221Z,47.44
2017-09-08T08:29:19.257Z,48.49
2017-09-08T08:30:19.290Z,49.24
2017-09-08T08:31:19.326Z,49.82
2017-09-08T08:32:19.359Z,50.10
2017-09-08T08:33:19.391Z,50.07
2017-09-08T08:34:19.425Z,49.91
2017-09-08T08:35:19.461Z,50.10
2017-09-08T08:36:19.496Z,50.48
2017-09-08T08:37:19.528Z,50.01
2017-09-08T08:38:19.565Z,49.53
2017-09-08T08:39:19.598Z,50.38
2017-09-08T08:40:19.631Z,50.48
2017-09-08T08:41:19.673Z,50.38
2017-09-08T08:42:19.707Z,51.52
2017-09-08T08:43:19.738Z,50.48
2017-09-08T08:44:19.771Z,50.95
2017-09-08T08:45:19.807Z,51.14
2017-09-08T08:46:19.839Z,50.29
2017-09-08T08:47:19.877Z,49.72
2017-09-08T08:48:19.907Z,49.82
2017-09-08T08:49:19.945Z,49.72
2017-09-08T08:50:19.977Z,50.48
2017-09-08T08:51:20.013Z,50.38
2017-09-08T08:52:20.049Z,51.33
2017-09-08T08:53:20.084Z,52.00
2017-09-08T08:54:20.118Z,51.33
2017-09-08T08:55:20.153Z,50.48
2017-09-08T08:56:20.190Z,50.10
2017-09-08T08:57:20.223Z,51.14
2017-09-08T08:58:20.256Z,50.20
2017-09-08T08:59:20.294Z,50.29
2017-09-08T09:00:20.327Z,50.57
2017-09-08T09:01:20.360Z,50.48
2017-09-08T09:02:20.396Z,50.38
2017-09-08T09:03:20.432Z,50.57
2017-09-08T09:04:20.466Z,51.05
2017-09-08T09:05:20.501Z,50.20
2017-09-08T09:06:20.538Z,50.29
2017-09-08T09:07:20.574Z,51.14
2017-09-08T09:08:20.609Z,50.95
2017-09-08T09:09:20.644Z,51.72
2017-09-08T09:10:20.685Z,50.01
2017-09-08T09:11:20.722Z,49.84
2017-09-08T09:12:20.750Z,49.53
2017-09-08T09:13:20.783Z,50.10
2017-09-08T09:14:20.820Z,49.53
2017-09-08T09:15:20.857Z,50.01
2017-09-08T09:16:20.890Z,49.82
2017-09-08T09:17:20.927Z,50.86
2017-09-08T09:18:20.962Z,51.33
2017-09-08T09:19:20.997Z,48.58
2017-09-08T09:20:21.033Z,48.22
2017-09-08T09:21:21.069Z,48.11
2017-09-08T09:22:21.106Z,47.73
2017-09-08T09:23:21.142Z,48.96
2017-09-08T09:24:21.178Z,47.47
2017-09-08T09:25:21.235Z,47.94
2017-09-08T09:26:21.252Z,48.06
2017-09-08T09:27:21.285Z,46.35
2017-09-08T09:28:21.322Z,45.50
2017-09-08T09:29:21.358Z,45.47
2017-09-08T09:30:21.397Z,45.38
2017-09-08T09:31:21.434Z,46.70
2017-09-08T09:32:21.470Z,46.42
2017-09-08T09:33:21.505Z,47.56
2017-09-08T09:34:21.543Z,47.37
2017-09-08T09:35:21.580Z,45.76
2017-09-08T09:36:21.618Z,45.76
2017-09-08T09:37:21.655Z,46.51
2017-09-08T09:38:21.691Z,45.09
2017-09-08T09:39:21.730Z,45.19
2017-09-08T09:40:21.766Z,44.53
2017-09-08T09:41:21.805Z,43.76
2017-09-08T09:42:21.842Z,43.67
2017-09-08T09:43:21.879Z,44.71
2017-09-08T09:44:21.915Z,45.76
2017-09-08T09:45:21.953Z,44.05
2017-09-08T09:46:21.988Z,43.76
2017-09-08T09:47:22.029Z,43.67
2017-09-08T09:48:22.065Z,44.05
2017-09-08T09:49:22.100Z,44.05
2017-09-08T09:50:22.137Z,43.95
2017-09-08T09:51:22.177Z,44.17
2017-09-08T09:52:22.213Z,43.88
2017-09-08T09:53:22.250Z,43.24
2017-09-08T09:54:22.287Z,43.98
2017-09-08T09:55:22.327Z,43.88
2017-09-08T09:56:22.365Z,43.02
2017-09-08T09:57:22.401Z,42.93
2017-09-08T09:58:22.441Z,44.64
2017-09-08T09:59:22.479Z,44.24
2017-09-08T10:00:22.515Z,45.68
2017-09-08T10:01:22.554Z,46.54
2017-09-08T10:02:22.601Z,46.61
2017-09-08T10:03:22.631Z,46.64
2017-09-08T10:04:22.669Z,45.38
2017-09-08T10:05:22.706Z,44.14
2017-09-08T10:06:22.745Z,44.83
2017-09-08T10:07:22.786Z,45.12
2017-09-08T10:08:22.821Z,46.51
2017-09-08T10:09:22.861Z,47.28
2017-09-08T10:10:22.901Z,46.23
2017-09-08T10:11:22.989Z,45.40
2017-09-08T10:12:22.975Z,45.31
2017-09-08T10:13:23.025Z,44.85
2017-09-08T10:14:23.053Z,44.38
2017-09-08T10:15:23.101Z,44.00
2017-09-08T10:16:23.132Z,43.80
2017-09-08T10:17:23.171Z,43.98
2017-09-08T10:18:23.210Z,44.54
2017-09-08T10:19:23.249Z,45.59
2017-09-08T10:20:23.291Z,44.73
2017-09-08T10:21:23.331Z,45.09
2017-09-08T10:22:23.370Z,45.21
2017-09-08T10:23:23.411Z,45.59
2017-09-08T10:24:23.450Z,45.59
2017-09-08T10:25:23.492Z,45.59
2017-09-08T10:26:23.530Z,44.83
2017-09-08T10:27:23.570Z,44.64
2017-09-08T10:28:23.611Z,44.35
2017-09-08T10:29:23.649Z,44.73
2017-09-08T10:30:23.687Z,45.47
2017-09-08T10:31:23.728Z,45.57
2017-09-08T10:32:23.773Z,45.50
2017-09-08T10:33:23.815Z,45.12
2017-09-08T10:34:23.855Z,44.76
2017-09-08T10:35:23.897Z,42.79
2017-09-08T10:36:23.929Z,42.57
2017-09-08T10:37:23.970Z,43.26
2017-09-08T10:38:24.014Z,42.79
2017-09-08T10:39:24.055Z,41.93
2017-09-08T10:40:24.094Z,42.19
2017-09-08T10:41:24.163Z,42.10
2017-09-08T10:42:24.178Z,42.47
2017-09-08T10:43:24.219Z,43.24
2017-09-08T10:44:24.262Z,43.14
2017-09-08T10:45:24.303Z,42.86
2017-09-08T10:46:24.341Z,42.86
2017-09-08T10:47:24.388Z,43.62
2017-09-08T10:48:24.427Z,43.24
2017-09-08T10:49:24.471Z,43.24
2017-09-08T10:50:24.511Z,42.67
2017-09-08T10:51:24.552Z,43.43
2017-09-08T10:52:24.599Z,43.52
2017-09-08T10:53:24.638Z,41.81
2017-09-08T10:54:24.678Z,41.24
2017-09-08T10:55:24.720Z,40.39
2017-09-08T10:56:24.761Z,41.05
2017-09-08T10:57:24.804Z,42.57
2017-09-08T10:58:24.848Z,43.24
2017-09-08T10:59:24.889Z,43.71
2017-09-08T11:00:24.930Z,43.54
2017-09-08T11:01:24.973Z,41.34
2017-09-08T11:02:25.017Z,41.26
2017-09-08T11:03:25.061Z,41.38
2017-09-08T11:04:25.100Z,40.52
2017-09-08T11:05:25.144Z,40.62
2017-09-08T11:06:25.189Z,40.50
2017-09-08T11:07:25.232Z,39.55
2017-09-08T11:08:25.274Z,40.58
2017-09-08T11:09:25.314Z,42.02
2017-09-08T11:10:25.358Z,41.66
2017-09-08T11:11:25.401Z,38.60
2017-09-08T11:12:25.445Z,39.25
2017-09-08T11:13:25.487Z,38.68
2017-09-08T11:14:25.533Z,41.24
2017-09-08T11:15:25.576Z,41.93
2017-09-08T11:16:25.619Z,42.10
2017-09-08T11:17:25.662Z,41.05
2017-09-08T11:18:25.704Z,41.83
2017-09-08T11:19:25.749Z,41.14
2017-09-08T11:20:25.789Z,42.29
2017-09-08T11:21:25.838Z,43.05
2017-09-08T11:22:25.876Z,43.05
2017-09-08T11:23:25.919Z,43.71
2017-09-08T11:24:25.962Z,42.88
2017-09-08T11:25:26.014Z,41.26
2017-09-08T11:26:26.052Z,40.12
2017-09-08T11:27:26.093Z,41.36
2017-09-08T11:28:26.135Z,43.57
2017-09-08T11:29:26.182Z,43.68
2017-09-08T11:30:26.226Z,43.57
2017-09-08T11:31:26.289Z,44.16
2017-09-08T11:32:26.310Z,43.61
2017-09-08T11:33:26.357Z,42.18
2017-09-08T11:34:26.415Z,40.85
2017-09-08T11:35:26.443Z,38.35
2017-09-08T11:36:26.489Z,37.57
2017-09-08T11:37:26.533Z,39.86
2017-09-08T11:38:26.577Z,41.49
2017-09-08T11:39:26.620Z,42.28
2017-09-08T11:40:26.663Z,41.97
2017-09-08T11:41:26.708Z,42.16
2017-09-08T11:42:26.759Z,40.54
2017-09-08T11:43:26.799Z,41.42
2017-09-08T11:44:26.843Z,40.56
2017-09-08T11:45:26.894Z,40.52
2017-09-08T11:46:26.933Z,40.81
2017-09-08T11:47:26.975Z,41.95
2017-09-08T11:48:27.022Z,41.07
2017-09-08T11:49:27.064Z,39.17
2017-09-08T11:50:27.112Z,39.74
2017-09-08T11:51:27.157Z,40.98
2017-09-08T11:52:27.199Z,42.33
2017-09-08T11:53:27.242Z,43.28
2017-09-08T11:54:27.289Z,42.04
2017-09-08T11:55:27.335Z,42.50
2017-09-08T11:56:27.375Z,41.91
2017-09-08T11:57:27.421Z,43.43
2017-09-08T11:58:27.467Z,47.33
2017-09-08T11:59:27.509Z,44.28
2017-09-08T12:00:27.554Z,43.14
2017-09-08T12:01:27.598Z,41.43
2017-09-08T12:02:27.641Z,41.91
2017-09-08T12:03:27.684Z,42.29
2017-09-08T12:04:27.727Z,42.19
2017-09-08T12:05:27.770Z,41.64
2017-09-08T12:06:27.815Z,41.46
2017-09-08T12:07:27.859Z,40.59
2017-09-08T12:08:27.901Z,40.86
2017-09-08T12:09:27.941Z,42.47
2017-09-08T12:10:27.984Z,42.10
2017-09-08T12:11:28.027Z,41.81
2017-09-08T12:12:28.081Z,42.79
2017-09-08T12:13:28.114Z,42.02
2017-09-08T12:14:28.155Z,40.50
2017-09-08T12:15:28.200Z,40.29
2017-09-08T12:16:28.240Z,38.96
2017-09-08T12:17:28.283Z,38.68
2017-09-08T12:18:28.327Z,40.50
2017-09-08T12:19:28.369Z,40.59
2017-09-08T12:20:28.410Z,40.79
2017-09-08T12:21:28.453Z,40.41
2017-09-08T12:22:28.495Z,40.95
2017-09-08T12:23:28.540Z,40.79
2017-09-08T12:24:28.578Z,40.48
2017-09-08T12:25:28.618Z,40.22
2017-09-08T12:26:28.666Z,40.01
2017-09-08T12:27:28.703Z,41.93
2017-09-08T12:28:28.744Z,42.60
2017-09-08T12:29:28.786Z,44.40
2017-09-08T12:30:28.825Z,43.43
2017-09-08T12:31:28.867Z,43.71
2017-09-08T12:32:28.907Z,42.12
2017-09-08T12:33:28.953Z,41.14
2017-09-08T12:34:28.991Z,42.02
2017-09-08T12:35:29.032Z,42.69
2017-09-08T12:36:29.072Z,42.57
2017-09-08T12:37:29.116Z,43.73
2017-09-08T12:38:29.158Z,41.91
2017-09-08T12:39:29.195Z,41.81
2017-09-08T12:40:29.252Z,42.19
2017-09-08T12:41:29.301Z,41.81
2017-09-08T12:42:29.317Z,42.47
2017-09-08T12:43:29.360Z,42.97
2017-09-08T12:44:29.397Z,43.90
2017-09-08T12:45:29.439Z,43.64
2017-09-08T12:46:29.481Z,42.69
2017-09-08T12:47:29.520Z,43.93
2017-09-08T12:48:29.561Z,45.16
2017-09-08T12:49:29.600Z,45.66
2017-09-08T12:50:29.642Z,44.61
2017-09-08T12:51:29.680Z,42.52
2017-09-08T12:52:29.719Z,43.28
2017-09-08T12:53:29.759Z,43.28
2017-09-08T12:54:29.800Z,43.35
2017-09-08T12:55:29.840Z,44.59
2017-09-08T12:56:29.880Z,44.59
2017-09-08T12:57:29.921Z,44.13
2017-09-08T12:58:29.963Z,44.04
2017-09-08T12:59:30.003Z,43.66
2017-09-08T13:00:30.044Z,43.64
2017-09-08T13:01:30.082Z,44.21
2017-09-08T13:02:30.122Z,45.54
2017-09-08T13:03:30.165Z,46.68
2017-09-08T13:04:30.205Z,47.92
2017-09-08T13:05:30.246Z,48.01
2017-09-08T13:06:30.283Z,48.01
2017-09-08T13:07:30.333Z,47.92
2017-09-08T13:08:30.363Z,46.97
2017-09-08T13:09:30.403Z,47.92
2017-09-08T13:10:30.443Z,47.44
2017-09-08T13:11:30.485Z,48.39
2017-09-08T13:12:30.522Z,46.20
2017-09-08T13:13:30.564Z,45.64
2017-09-08T13:14:30.604Z,46.89
2017-09-08T13:15:30.677Z,46.89
2017-09-08T13:16:30.678Z,46.80
2017-09-08T13:17:30.721Z,46.99
2017-09-08T13:18:30.757Z,47.37
2017-09-08T13:19:30.798Z,47.28
2017-09-08T13:20:30.839Z,47.37
2017-09-08T13:21:30.908Z,48.58
2017-09-08T13:22:30.916Z,48.96
2017-09-08T13:23:30.954Z,49.15
2017-09-08T13:24:30.990Z,48.87
2017-09-08T13:25:31.028Z,49.06
2017-09-08T13:26:31.071Z,48.68
2017-09-08T13:27:31.103Z,49.25
2017-09-08T13:28:31.142Z,49.60
2017-09-08T13:29:31.178Z,49.54
2017-09-08T13:30:31.218Z,49.79
2017-09-08T13:31:31.256Z,51.31
2017-09-08T13:32:31.289Z,50.48
2017-09-08T13:33:31.328Z,50.68
2017-09-08T13:34:31.365Z,50.56
2017-09-08T13:35:31.400Z,51.34
2017-09-08T13:36:31.438Z,51.41
2017-09-08T13:37:31.473Z,50.37
2017-09-08T13:38:31.510Z,50.65
2017-09-08T13:39:31.546Z,52.08
2017-09-08T13:40:31.584Z,53.05
2017-09-08T13:41:31.620Z,50.96
2017-09-08T13:42:31.654Z,51.43
2017-09-08T13:43:31.691Z,51.72
2017-09-08T13:44:31.729Z,50.77
2017-09-08T13:45:31.764Z,51.06
2017-09-08T13:46:31.800Z,52.10
2017-09-08T13:47:31.837Z,50.58
2017-09-08T13:48:31.869Z,50.48
2017-09-08T13:49:31.908Z,51.34
2017-09-08T13:50:31.947Z,52.32
2017-09-08T13:51:31.978Z,52.96
2017-09-08T13:52:32.012Z,52.10
2017-09-08T13:53:32.049Z,54.57
2017-09-08T13:54:32.087Z,56.10
2017-09-08T13:55:32.123Z,54.48
2017-09-08T13:56:32.158Z,55.08
2017-09-08T13:57:32.194Z,55.27
2017-09-08T13:58:32.230Z,55.46
2017-09-08T13:59:32.266Z,53.24
2017-09-08T14:00:32.299Z,53.36
2017-09-08T14:01:32.338Z,53.08
2017-09-08T14:02:32.374Z,51.01
2017-09-08T14:03:32.409Z,50.54
2017-09-08T14:04:32.445Z,51.30
2017-09-08T14:05:32.485Z,50.63
2017-09-08T14:06:32.518Z,50.73
2017-09-08T14:07:32.556Z,50.56
2017-09-08T14:08:32.591Z,51.89
2017-09-08T14:09:32.631Z,51.61
2017-09-08T14:10:32.667Z,50.54
2017-09-08T14:11:32.704Z,50.35
2017-09-08T14:12:32.739Z,49.94
2017-09-08T14:13:32.775Z,50.13
2017-09-08T14:14:32.814Z,50.63
2017-09-08T14:15:32.850Z,50.99
2017-09-08T14:16:32.886Z,52.51
2017-09-08T14:17:32.921Z,52.96
2017-09-08T14:18:32.961Z,54.89
2017-09-08T14:19:32.998Z,56.12
2017-09-08T14:20:33.031Z,57.77
2017-09-08T14:21:33.071Z,62.24
2017-09-08T14:22:33.106Z,63.51
2017-09-08T14:23:33.143Z,63.13
2017-09-08T14:24:33.176Z,60.08
2017-09-08T14:25:33.213Z,56.34
2017-09-08T14:26:33.253Z,54.82
2017-09-08T14:27:33.288Z,56.98
2017-09-08T14:28:33.322Z,56.60
2017-09-08T14:29:33.359Z,56.98
2017-09-08T14:30:33.395Z,57.17
2017-09-08T14:31:33.433Z,58.40
2017-09-08T14:32:33.469Z,58.50
2017-09-08T14:33:33.503Z,59.45
2017-09-08T14:34:33.541Z,57.45
2017-09-08T14:35:33.577Z,58.15
2017-09-08T14:36:33.613Z,58.62
2017-09-08T14:37:33.646Z,57.77
2017-09-08T14:38:33.682Z,62.91
2017-09-08T14:39:33.722Z,65.77
2017-09-08T14:40:33.754Z,65.58
2017-09-08T14:41:33.789Z,67.19
2017-09-08T14:42:33.826Z,66.62
2017-09-08T14:43:33.860Z,68.43
2017-09-08T14:44:33.896Z,66.78
2017-09-08T14:45:33.932Z,66.30
2017-09-08T14:46:33.965Z,69.15
2017-09-08T14:47:34.004Z,73.72
2017-09-08T14:48:34.036Z,75.15
2017-09-08T14:49:34.078Z,76.06
2017-09-08T14:50:34.107Z,75.36
2017-09-08T14:51:34.145Z,71.94
2017-09-08T14:52:34.176Z,71.50
2017-09-08T14:53:34.213Z,70.26
2017-09-08T14:54:34.248Z,69.98
2017-09-08T14:55:34.281Z,71.72
2017-09-08T14:56:34.315Z,69.95
2017-09-08T14:57:34.350Z,72.52
2017-09-08T14:58:34.385Z,73.57
2017-09-08T14:59:34.420Z,75.53
2017-09-08T15:00:34.452Z,78.10
2017-09-08T15:01:34.488Z,78.48
2017-09-08T15:02:34.522Z,71.88
2017-09-08T15:03:34.557Z,73.69
2017-09-08T15:04:34.592Z,68.80
2017-09-08T15:05:34.625Z,68.04
2017-09-08T15:06:34.660Z,68.61
2017-09-08T15:07:34.696Z,75.74
2017-09-08T15:08:34.728Z,80.63
2017-09-08T15:09:34.761Z,80.53
2017-09-08T15:10:34.795Z,80.15
2017-09-08T15:11:34.832Z,81.67
2017-09-08T15:12:34.864Z,80.91
2017-09-08T15:13:34.896Z,78.29
2017-09-08T15:14:34.932Z,78.25
2017-09-08T15:15:34.964Z,81.20
2017-09-08T15:16:34.997Z,80.82
2017-09-08T15:17:35.044Z,79.43
2017-09-08T15:18:35.067Z,77.91
2017-09-08T15:19:35.099Z,73.69
2017-09-08T15:20:35.133Z,72.64
2017-09-08T15:21:35.167Z,74.26
2017-09-08T15:22:35.200Z,73.97
2017-09-08T15:23:35.234Z,74.20
2017-09-08T15:24:35.266Z,76.54
2017-09-08T15:25:35.301Z,78.25
2017-09-08T15:26:35.333Z,78.91
2017-09-08T15:27:35.367Z,80.15
2017-09-08T15:28:35.397Z,80.30
2017-09-08T15:29:35.431Z,82.77
2017-09-08T15:30:35.464Z,83.06
2017-09-08T15:31:35.500Z,81.44
2017-09-08T15:32:35.532Z,83.62
2017-09-08T15:33:35.564Z,84.86
2017-09-08T15:34:35.598Z,84.44
2017-09-08T15:35:35.628Z,85.05
2017-09-08T15:36:35.660Z,85.24
2017-09-08T15:37:35.693Z,85.24
2017-09-08T15:38:35.732Z,84.29
2017-09-08T15:39:35.758Z,84.48
2017-09-08T15:40:35.792Z,83.34
2017-09-08T15:41:35.823Z,85.24
2017-09-08T15:42:35.854Z,85.62
2017-09-08T15:43:35.886Z,85.62
2017-09-08T15:44:35.918Z,85.43
2017-09-08T15:45:35.949Z,86.29
2017-09-08T15:46:35.984Z,85.34
2017-09-08T15:47:36.014Z,84.67
2017-09-08T15:48:36.046Z,84.29
2017-09-08T15:49:36.078Z,84.86
2017-09-08T15:50:36.111Z,84.10
2017-09-08T15:51:36.143Z,84.86
2017-09-08T15:52:36.173Z,85.05
2017-09-08T15:53:36.203Z,85.68
2017-09-08T15:54:36.234Z,86.63
2017-09-08T15:55:36.271Z,86.82
2017-09-08T15:56:36.299Z,86.10
2017-09-08T15:57:36.332Z,85.34
2017-09-08T15:58:36.359Z,85.34
2017-09-08T15:59:36.392Z,84.01
2017-09-08T16:00:36.421Z,82.96
2017-09-08T16:01:36.459Z,83.53
2017-09-08T16:02:36.489Z,82.15
2017-09-08T16:03:36.518Z,82.62
2017-09-08T16:04:36.548Z,81.92
2017-09-08T16:05:36.577Z,82.58
2017-09-08T16:06:36.610Z,82.29
2017-09-08T16:07:36.638Z,82.68
2017-09-08T16:08:36.671Z,82.96
2017-09-08T16:09:36.699Z,83.06
2017-09-08T16:10:36.730Z,83.25
2017-09-08T16:11:36.764Z,84.01
2017-09-08T16:12:36.791Z,84.20
2017-09-08T16:13:36.821Z,84.20
2017-09-08T16:14:36.854Z,85.34
2017-09-08T16:15:36.884Z,85.53
2017-09-08T16:16:36.945Z,85.34
2017-09-08T16:17:36.950Z,84.67
2017-09-08T16:18:36.973Z,84.20
2017-09-08T16:19:37.005Z,83.62
2017-09-08T16:20:37.034Z,83.06
2017-09-08T16:21:37.064Z,83.11
2017-09-08T16:22:37.092Z,83.78
2017-09-08T16:23:37.124Z,84.63
2017-09-08T16:24:37.153Z,83.91
2017-09-08T16:25:37.190Z,84.58
2017-09-08T16:26:37.211Z,83.82
2017-09-08T16:27:37.241Z,84.48
2017-09-08T16:28:37.271Z,84.20
2017-09-08T16:29:37.301Z,83.91
2017-09-08T16:30:37.331Z,83.91
2017-09-08T16:31:37.358Z,83.53
2017-09-08T16:32:37.389Z,82.49
2017-09-08T16:33:37.418Z,82.10
2017-09-08T16:34:37.445Z,81.54
2017-09-08T16:35:37.476Z,81.82
2017-09-08T16:36:37.503Z,81.82
2017-09-08T16:37:37.535Z,82.29
2017-09-08T16:38:37.565Z,83.01
2017-09-08T16:39:37.591Z,83.49
2017-09-08T16:40:37.620Z,84.06
2017-09-08T16:41:37.648Z,84.44
2017-09-08T16:42:37.679Z,83.78
2017-09-08T16:43:37.707Z,83.87
2017-09-08T16:44:37.738Z,84.44
2017-09-08T16:45:37.764Z,85.01
2017-09-08T16:46:37.796Z,86.20
2017-09-08T16:47:37.822Z,86.01
2017-09-08T16:48:37.852Z,87.24
2017-09-08T16:49:37.881Z,86.87
2017-09-08T16:50:37.910Z,87.24
2017-09-08T16:51:37.964Z,86.87
2017-09-08T16:52:37.964Z,85.35
2017-09-08T16:53:37.995Z,86.30
2017-09-08T16:54:38.023Z,87.30
2017-09-08T16:55:38.052Z,85.30
2017-09-08T16:56:38.078Z,87.58
2017-09-08T16:57:38.108Z,89.39
2017-09-08T16:58:38.135Z,89.39
2017-09-08T16:59:38.161Z,89.00
2017-09-08T17:00:38.191Z,89.10
2017-09-08T17:01:38.217Z,89.58
2017-09-08T17:02:38.246Z,89.67
2017-09-08T17:03:38.275Z,89.76
2017-09-08T17:04:38.302Z,89.86
2017-09-08T17:05:38.327Z,89.95
2017-09-08T17:06:38.357Z,90.43
2017-09-08T17:07:38.385Z,90.81
2017-09-08T17:08:38.410Z,90.81
2017-09-08T17:09:38.438Z,90.81
2017-09-08T17:10:38.464Z,90.90
2017-09-08T17:11:38.494Z,91.38
2017-09-08T17:12:38.521Z,91.85
2017-09-08T17:13:38.548Z,90.90
2017-09-08T17:14:38.574Z,91.66
2017-09-08T17:15:38.599Z,91.75
2017-09-08T17:16:38.628Z,91.75
2017-09-08T17:17:38.654Z,91.09
2017-09-08T17:18:38.680Z,90.14
2017-09-08T17:19:38.710Z,90.71
2017-09-08T17:20:38.737Z,90.14
2017-09-08T17:21:38.761Z,90.19
2017-09-08T17:22:38.790Z,90.24
2017-09-08T17:23:38.816Z,89.48
2017-09-08T17:24:38.848Z,89.39
2017-09-08T17:25:38.867Z,89.29
2017-09-08T17:26:38.897Z,89.91
2017-09-08T17:27:38.927Z,89.91
2017-09-08T17:28:38.949Z,90.05
2017-09-08T17:29:38.973Z,89.53
2017-09-08T17:30:39.002Z,89.43
2017-09-08T17:31:39.034Z,89.43
2017-09-08T17:32:39.055Z,89.62
2017-09-08T17:33:39.078Z,89.91
2017-09-08T17:34:39.105Z,89.72
2017-09-08T17:35:39.133Z,90.29
2017-09-08T17:36:39.157Z,91.14
2017-09-08T17:37:39.186Z,91.05
2017-09-08T17:38:39.214Z,90.76
2017-09-08T17:39:39.238Z,91.42
2017-09-08T17:40:39.261Z,91.05
2017-09-08T17:41:39.287Z,91.71
2017-09-08T17:42:39.313Z,91.52
2017-09-08T17:43:39.342Z,91.71
2017-09-08T17:44:39.364Z,92.28
2017-09-08T17:45:39.389Z,92.57
2017-09-08T17:46:39.418Z,93.04
2017-09-08T17:47:39.442Z,92.76
2017-09-08T17:48:39.468Z,92.94
2017-09-08T17:49:39.493Z,93.23
2017-09-08T17:50:39.521Z,93.70
2017-09-08T17:51:39.544Z,93.51
2017-09-08T17:52:39.570Z,93.61
2017-09-08T17:53:39.594Z,93.61
2017-09-08T17:54:39.621Z,93.61
2017-09-08T17:55:39.648Z,93.51
2017-09-08T17:56:39.670Z,93.70
2017-09-08T17:57:39.696Z,93.61
2017-09-08T17:58:39.724Z,93.99
2017-09-08T17:59:39.748Z,93.89
2017-09-08T18:00:39.773Z,93.61
2017-09-08T18:01:39.797Z,93.99
2017-09-08T18:02:39.823Z,94.18
2017-09-08T18:03:39.848Z,94.08
2017-09-08T18:04:39.872Z,93.99
2017-09-08T18:05:39.899Z,93.80
2017-09-08T18:06:39.926Z,94.46
2017-09-08T18:07:39.951Z,94.08
2017-09-08T18:08:39.975Z,94.46
2017-09-08T18:09:40.001Z,94.65
2017-09-08T18:10:40.024Z,94.93
2017-09-08T18:11:40.049Z,94.93
2017-09-08T18:12:40.077Z,94.37
2017-09-08T18:13:40.100Z,94.84
2017-09-08T18:14:40.124Z,93.70
2017-09-08T18:15:40.154Z,94.46
2017-09-08T18:16:40.176Z,94.65
2017-09-08T18:17:40.201Z,94.56
2017-09-08T18:18:40.224Z,94.65
2017-09-08T18:19:40.251Z,94.93
2017-09-08T18:20:40.274Z,94.74
2017-09-08T18:21:40.298Z,94.46
2017-09-08T18:22:40.323Z,94.74
2017-09-08T18:23:40.355Z,94.08
2017-09-08T18:24:40.380Z,93.70
2017-09-08T18:25:40.401Z,93.04
2017-09-08T18:26:40.425Z,93.80
2017-09-08T18:27:40.448Z,93.99
2017-09-08T18:28:40.473Z,93.41
2017-09-08T18:29:40.501Z,93.04
2017-09-08T18:30:40.523Z,92.76
2017-09-08T18:31:40.548Z,93.61
2017-09-08T18:32:40.575Z,93.80
2017-09-08T18:33:40.600Z,94.37
2017-09-08T18:34:40.626Z,94.08
2017-09-08T18:35:40.648Z,94.65
2017-09-08T18:36:40.674Z,94.84
2017-09-08T18:37:40.696Z,94.08
2017-09-08T18:38:40.725Z,93.99
2017-09-08T18:39:40.776Z,94.08
2017-09-08T18:40:40.774Z,93.61
2017-09-08T18:41:40.798Z,91.61
2017-09-08T18:42:40.822Z,90.86
2017-09-08T18:43:40.847Z,90.76
2017-09-08T18:44:40.871Z,89.91
2017-09-08T18:45:40.898Z,88.58
2017-09-08T18:46:40.923Z,88.06
2017-09-08T18:47:40.949Z,87.49
2017-09-08T18:48:40.972Z,88.01
2017-09-08T18:49:40.995Z,88.20
2017-09-08T18:50:41.022Z,89.43
2017-09-08T18:51:41.044Z,89.81
2017-09-08T18:52:41.068Z,90.86
2017-09-08T18:53:41.094Z,91.05
2017-09-08T18:54:41.121Z,91.05
2017-09-08T18:55:41.145Z,90.48
2017-09-08T18:56:41.168Z,89.53
2017-09-08T18:57:41.192Z,88.87
2017-09-08T18:58:41.220Z,88.68
2017-09-08T18:59:41.242Z,87.73
2017-09-08T19:00:41.267Z,87.68
2017-09-08T19:01:41.294Z,87.25
2017-09-08T19:02:41.319Z,86.25
2017-09-08T19:03:41.342Z,85.68
2017-09-08T19:04:41.366Z,85.49
2017-09-08T19:05:41.392Z,85.97
2017-09-08T19:06:41.418Z,86.07
2017-09-08T19:07:41.440Z,85.68
2017-09-08T19:08:41.466Z,85.87
2017-09-08T19:09:41.489Z,86.25
2017-09-08T19:10:41.518Z,85.93
2017-09-08T19:11:41.538Z,86.68
2017-09-08T19:12:41.563Z,86.59
2017-09-08T19:13:41.590Z,86.59
2017-09-08T19:14:41.613Z,85.07
2017-09-08T19:15:41.638Z,86.02
2017-09-08T19:16:41.661Z,86.07
2017-09-08T19:17:41.686Z,86.40
2017-09-08T19:18:41.715Z,86.49
2017-09-08T19:19:41.735Z,87.06
2017-09-08T19:20:41.762Z,87.06
2017-09-08T19:21:41.787Z,87.25
2017-09-08T19:22:41.810Z,85.64
2017-09-08T19:23:41.838Z,85.11
2017-09-08T19:24:41.861Z,84.22
2017-09-08T19:25:41.886Z,84.88
2017-09-08T19:26:41.908Z,84.78
2017-09-08T19:27:41.934Z,85.55
2017-09-08T19:28:41.960Z,86.11
2017-09-08T19:29:41.982Z,85.45
2017-09-08T19:30:42.008Z,84.98
2017-09-08T19:31:42.041Z,86.21
2017-09-08T19:32:42.058Z,85.64
2017-09-08T19:33:42.084Z,86.02
2017-09-08T19:34:42.106Z,86.40
2017-09-08T19:35:42.133Z,85.55
2017-09-08T19:36:42.154Z,86.30
2017-09-08T19:37:42.182Z,86.78
2017-09-08T19:38:42.208Z,86.87
2017-09-08T19:39:42.233Z,86.97
2017-09-08T19:40:42.256Z,86.49
2017-09-08T19:41:42.278Z,86.87
2017-09-08T19:42:42.303Z,86.59
2017-09-08T19:43:42.330Z,86.87
2017-09-08T19:44:42.355Z,87.92
2017-09-08T19:45:42.380Z,87.54
2017-09-08T19:46:42.402Z,87.25
2017-09-08T19:47:42.427Z,88.10